Главная страница
METAR-TAF:

METAR-TAF

Аэропорты :

Трабзон, Турция

широта: 41-00N, долгота: 039-43E, высота над уровнем моря: 35 м

Текущие метеонаблюдения

Эта сводка был подготовлена 32 минут назад, в 05:20 UTC
Ветер 2 Узел переменных направлений
Температура 9°C
Влажность 61%
Давление 1024 hPa
Видимость 10 км и более
Нет облачности ниже 1500 м, и нет кучево-дождевой облачности

METAR: LTCG 190520Z VRB02KT CAVOK 09/02 Q1024 NOSIG RMK RWY29 VRB02KT

Время: 08:52 (05:52 UTC)

Прогноз

Эта сводка был подготовлена 1 час и 12 минут назад, в 04:40 UTC
Прогноз действительный с 19-го 06 UTC до 20-го 06 UTC
Ветер 7 Узел от восточный
Видимость 10 км и более
Нет облачности ниже 1500 м, и нет кучево-дождевой облачности
Вероятность 30%
С 19-го 16 UTC до 19-го 20 UTC
Видимость: 3500 м
дым

TAF: LTCG 190440Z 1906/2006 08007KT CAVOK PROB30 1916/1920 3500 FU

Метеонаблюдения и прогнозы для более 4000 аэропортов (сводки METAR и TAF).

Имеющиеся станции представлены на карте желтыми и красными точками.

Чтобы увидеть название станции, наведите на нее мышь.

Затем щелкните, чтобы увидеть метеонаблюдения и метеопрогнозы.

Управление картой: чтобы увеличить масштаб, щелкните зеленые кнопки с черным крестиком; чтобы уменьшить масштаб, щелкните зеленую кнопку с тире; для просмотра соседних карт щелкайте зеленые стрелки.


METAR-TAF: